createdAt,value
2019-06-15T00:01:41.241Z,53.00
2019-06-15T00:04:09.094Z,52.40
2019-06-15T00:06:36.841Z,53.40
2019-06-15T00:09:06.378Z,54.10
2019-06-15T00:11:34.159Z,55.50
2019-06-15T00:14:01.931Z,57.10
2019-06-15T00:16:29.823Z,57.20
2019-06-15T00:18:57.650Z,57.60
2019-06-15T00:21:25.381Z,58.90
2019-06-15T00:23:53.378Z,59.00
2019-06-15T00:26:21.392Z,58.60
2019-06-15T00:28:49.213Z,58.10
2019-06-15T00:31:19.301Z,57.80
2019-06-15T00:33:47.179Z,59.10
2019-06-15T00:36:15.332Z,61.80
2019-06-15T00:38:43.295Z,64.40
2019-06-15T00:41:11.710Z,65.30
2019-06-15T00:43:39.471Z,66.50
2019-06-15T00:46:07.248Z,66.70
2019-06-15T00:48:35.642Z,68.20
2019-06-15T00:51:04.658Z,70.60
2019-06-15T00:53:34.871Z,72.60
2019-06-15T00:56:03.083Z,73.30
2019-06-15T00:58:30.746Z,74.80
2019-06-15T01:00:58.435Z,76.20
2019-06-15T01:03:26.176Z,76.50
2019-06-15T01:05:54.339Z,75.70
2019-06-15T01:08:22.148Z,76.80
2019-06-15T01:10:50.943Z,76.40
2019-06-15T01:13:18.709Z,75.70
2019-06-15T01:15:46.451Z,75.90
2019-06-15T01:18:14.680Z,75.10
2019-06-15T01:20:42.416Z,76.30
2019-06-15T01:23:10.233Z,76.60
2019-06-15T01:25:38.035Z,77.00
2019-06-15T01:28:05.940Z,76.90
2019-06-15T01:30:33.870Z,74.50
2019-06-15T01:33:01.597Z,75.00
2019-06-15T01:35:29.474Z,74.00
2019-06-15T01:37:57.296Z,73.80
2019-06-15T01:40:25.052Z,74.80
2019-06-15T01:42:54.362Z,74.70
2019-06-15T01:45:26.047Z,72.70
2019-06-15T01:47:54.462Z,72.40
2019-06-15T01:50:22.199Z,72.00
2019-06-15T01:52:49.948Z,72.90
2019-06-15T01:55:21.235Z,72.80
2019-06-15T01:57:47.969Z,74.80
2019-06-15T02:00:20.688Z,74.00
2019-06-15T02:02:48.511Z,73.00
2019-06-15T02:05:16.387Z,73.40
2019-06-15T02:07:44.262Z,72.40
2019-06-15T02:10:15.669Z,74.80
2019-06-15T02:12:43.432Z,76.40
2019-06-15T02:15:11.798Z,76.60
2019-06-15T02:17:39.504Z,76.80
2019-06-15T02:20:07.857Z,77.40
2019-06-15T02:22:39.724Z,77.70
2019-06-15T02:25:08.000Z,78.90
2019-06-15T02:27:35.691Z,81.00
2019-06-15T02:30:04.999Z,81.30
2019-06-15T02:32:32.673Z,81.80
2019-06-15T02:35:00.398Z,82.00
2019-06-15T02:37:28.207Z,82.10
2019-06-15T02:39:55.931Z,82.30
2019-06-15T02:42:23.640Z,81.70
2019-06-15T02:44:51.450Z,81.40
2019-06-15T02:47:19.163Z,82.60
2019-06-15T02:49:46.883Z,81.60
2019-06-15T02:52:14.853Z,81.60
2019-06-15T02:54:45.259Z,82.30
2019-06-15T02:57:13.100Z,80.60
2019-06-15T02:59:46.908Z,81.10
2019-06-15T03:02:14.574Z,81.30
2019-06-15T03:04:42.332Z,81.30
2019-06-15T03:07:10.873Z,82.20
2019-06-15T03:09:39.322Z,81.60
2019-06-15T03:12:07.022Z,81.80
2019-06-15T03:14:34.936Z,82.90
2019-06-15T03:17:02.747Z,83.10
2019-06-15T03:19:30.497Z,82.50
2019-06-15T03:21:58.201Z,82.90
2019-06-15T03:24:25.999Z,83.50
2019-06-15T03:26:53.664Z,85.30
2019-06-15T03:29:21.471Z,85.40
2019-06-15T03:31:49.292Z,86.00
2019-06-15T03:34:17.102Z,88.90
2019-06-15T03:36:44.802Z,89.30
2019-06-15T03:39:12.725Z,89.60
2019-06-15T03:41:40.565Z,89.20
2019-06-15T03:44:08.319Z,87.20
2019-06-15T03:46:36.121Z,88.00
2019-06-15T03:49:03.822Z,87.20
2019-06-15T03:51:31.911Z,89.20
2019-06-15T03:53:59.767Z,90.70
2019-06-15T03:56:27.461Z,90.70
2019-06-15T03:58:55.204Z,90.80
2019-06-15T04:01:34.068Z,90.40
2019-06-15T04:04:01.852Z,90.30
2019-06-15T04:06:29.534Z,89.00
2019-06-15T04:08:57.464Z,88.80
2019-06-15T04:11:25.268Z,90.10
2019-06-15T04:13:53.092Z,90.90
2019-06-15T04:16:20.955Z,90.80
2019-06-15T04:18:48.771Z,91.30
2019-06-15T04:21:16.509Z,90.70
2019-06-15T04:23:44.338Z,92.00
2019-06-15T04:26:12.368Z,92.20
2019-06-15T04:28:40.169Z,92.70
2019-06-15T04:31:07.860Z,92.50
2019-06-15T04:33:35.859Z,92.70
2019-06-15T04:36:03.568Z,92.70
2019-06-15T04:38:31.300Z,92.70
2019-06-15T04:41:01.574Z,92.20
2019-06-15T04:43:28.718Z,92.80
2019-06-15T04:45:57.066Z,93.10
2019-06-15T04:48:24.794Z,93.70
2019-06-15T04:50:52.512Z,94.00
2019-06-15T04:53:20.335Z,94.50
2019-06-15T04:55:48.013Z,94.50
2019-06-15T04:58:15.815Z,94.60
2019-06-15T05:00:43.674Z,94.80
2019-06-15T05:03:11.582Z,94.50
2019-06-15T05:05:39.293Z,94.20
2019-06-15T05:08:07.230Z,94.60
2019-06-15T05:10:34.948Z,94.50
2019-06-15T05:13:02.650Z,94.10
2019-06-15T05:15:30.472Z,94.00
2019-06-15T05:17:58.236Z,94.50
2019-06-15T05:20:25.953Z,93.20
2019-06-15T05:22:53.752Z,94.10
2019-06-15T05:25:21.973Z,94.60
2019-06-15T05:27:49.594Z,94.60
2019-06-15T05:30:17.941Z,94.30
2019-06-15T05:32:45.662Z,95.00
2019-06-15T05:35:13.656Z,95.10
2019-06-15T05:37:41.427Z,95.10
2019-06-15T05:40:09.408Z,95.50
2019-06-15T05:42:37.230Z,95.80
2019-06-15T05:45:06.010Z,95.90
2019-06-15T05:47:33.703Z,96.20
2019-06-15T05:50:01.527Z,96.50
2019-06-15T05:52:29.207Z,97.10
2019-06-15T05:54:57.036Z,96.90
2019-06-15T05:57:24.747Z,97.80
2019-06-15T05:59:52.680Z,97.60
2019-06-15T06:02:23.878Z,97.20
2019-06-15T06:04:49.969Z,97.10
2019-06-15T06:07:17.796Z,96.60
2019-06-15T06:09:45.464Z,96.50
2019-06-15T06:12:13.276Z,96.30
2019-06-15T06:14:41.080Z,96.50
2019-06-15T06:17:08.881Z,95.80
2019-06-15T06:19:36.570Z,95.70
2019-06-15T06:22:04.415Z,96.30
2019-06-15T06:24:32.099Z,96.80
2019-06-15T06:27:00.220Z,96.70
2019-06-15T06:29:27.885Z,96.90
2019-06-15T06:31:55.556Z,97.20
2019-06-15T06:34:23.879Z,97.60
2019-06-15T06:36:51.575Z,96.60
2019-06-15T06:39:19.320Z,96.90
2019-06-15T06:41:47.133Z,96.00
2019-06-15T06:44:14.951Z,96.10
2019-06-15T06:46:42.690Z,95.90
2019-06-15T06:49:10.852Z,95.90
2019-06-15T06:51:38.805Z,96.00
2019-06-15T06:54:06.529Z,95.60
2019-06-15T06:56:34.226Z,95.50
2019-06-15T06:59:02.136Z,95.10
2019-06-15T07:01:29.919Z,95.20
2019-06-15T07:03:57.726Z,94.50
2019-06-15T07:06:25.525Z,94.80
2019-06-15T07:08:53.237Z,94.60
2019-06-15T07:11:20.914Z,94.30
2019-06-15T07:13:48.805Z,94.00
2019-06-15T07:16:16.877Z,93.50
2019-06-15T07:18:44.559Z,92.40
2019-06-15T07:21:16.424Z,91.70
2019-06-15T07:23:44.226Z,91.60
2019-06-15T07:26:11.902Z,91.50
2019-06-15T07:28:39.778Z,91.60
2019-06-15T07:31:07.562Z,91.80
2019-06-15T07:33:35.248Z,91.90
2019-06-15T07:36:02.955Z,90.60
2019-06-15T07:38:30.751Z,91.20
2019-06-15T07:40:58.571Z,91.20
2019-06-15T07:43:26.413Z,90.90
2019-06-15T07:45:54.227Z,90.90
2019-06-15T07:48:22.037Z,91.10
2019-06-15T07:50:49.893Z,91.40
2019-06-15T07:53:17.608Z,91.00
2019-06-15T07:55:45.486Z,91.30
2019-06-15T07:58:24.156Z,91.70
2019-06-15T08:00:42.928Z,91.30
2019-06-15T08:03:10.771Z,91.40
2019-06-15T08:05:38.485Z,91.70
2019-06-15T08:08:06.177Z,91.80
2019-06-15T08:10:34.023Z,91.60
2019-06-15T08:13:01.715Z,91.30
2019-06-15T08:15:29.511Z,90.50
2019-06-15T08:17:57.340Z,91.70
2019-06-15T08:20:31.557Z,91.10
2019-06-15T08:23:00.309Z,90.80
2019-06-15T08:25:28.643Z,90.10
2019-06-15T08:27:56.333Z,88.00
2019-06-15T08:30:36.846Z,82.40
2019-06-15T08:33:04.948Z,76.60
2019-06-15T08:35:32.635Z,76.20
2019-06-15T08:38:00.363Z,77.50
2019-06-15T08:40:28.190Z,72.60
2019-06-15T08:42:55.875Z,71.80
2019-06-15T08:45:23.651Z,69.20
2019-06-15T08:47:51.355Z,71.00
2019-06-15T08:50:19.167Z,69.70
2019-06-15T08:52:46.952Z,67.00
2019-06-15T08:55:14.651Z,67.80
2019-06-15T08:57:42.356Z,65.70
2019-06-15T09:00:10.640Z,68.40
2019-06-15T09:02:38.544Z,69.40
2019-06-15T09:05:06.777Z,70.10
2019-06-15T09:07:34.594Z,69.00
2019-06-15T09:10:02.688Z,69.60
2019-06-15T09:12:30.441Z,72.00
2019-06-15T09:14:58.222Z,72.60
2019-06-15T09:17:25.900Z,75.00
2019-06-15T09:19:53.677Z,72.20
2019-06-15T09:22:21.496Z,69.70
2019-06-15T09:24:49.296Z,68.10
2019-06-15T09:27:17.121Z,67.40
2019-06-15T09:29:44.815Z,63.50
2019-06-15T09:32:12.527Z,63.60
2019-06-15T09:34:40.372Z,65.60
2019-06-15T09:37:08.218Z,65.80
2019-06-15T09:39:37.835Z,61.90
2019-06-15T09:42:05.548Z,59.60
2019-06-15T09:44:33.361Z,57.70
2019-06-15T09:47:01.055Z,53.80
2019-06-15T09:49:28.772Z,55.30
2019-06-15T09:51:56.613Z,58.70
2019-06-15T09:54:27.831Z,57.60
2019-06-15T09:56:54.320Z,55.30
2019-06-15T09:59:25.926Z,54.80
2019-06-15T10:01:52.224Z,57.50
2019-06-15T10:04:20.057Z,55.70
2019-06-15T10:06:47.896Z,55.10
2019-06-15T10:09:19.073Z,53.10
2019-06-15T10:11:48.226Z,53.20
2019-06-15T10:14:15.969Z,53.20
2019-06-15T10:16:43.774Z,51.20
2019-06-15T10:19:11.670Z,50.10
2019-06-15T10:21:39.639Z,52.80
2019-06-15T10:24:07.342Z,54.30
2019-06-15T10:26:35.152Z,53.60
2019-06-15T10:29:02.890Z,54.00
2019-06-15T10:31:30.758Z,56.20
2019-06-15T10:33:58.440Z,58.40
2019-06-15T10:36:26.801Z,59.30
2019-06-15T10:38:54.645Z,62.20
2019-06-15T10:41:22.451Z,66.40
2019-06-15T10:43:50.353Z,67.60
2019-06-15T10:46:18.077Z,70.00
2019-06-15T10:48:45.929Z,69.80
2019-06-15T10:51:13.692Z,70.30
2019-06-15T10:53:41.390Z,71.90
2019-06-15T10:56:09.239Z,70.70
2019-06-15T10:58:37.002Z,70.00
2019-06-15T11:01:04.857Z,68.50
2019-06-15T11:03:32.706Z,67.50
2019-06-15T11:06:00.822Z,64.90
2019-06-15T11:08:28.521Z,64.80
2019-06-15T11:11:17.974Z,66.40
2019-06-15T11:13:45.951Z,69.00
2019-06-15T11:16:13.717Z,70.50
2019-06-15T11:18:42.067Z,71.60
2019-06-15T11:21:10.525Z,72.90
2019-06-15T11:23:38.489Z,69.60
2019-06-15T11:26:06.455Z,69.30
2019-06-15T11:28:34.207Z,63.80
2019-06-15T11:31:01.896Z,65.70
2019-06-15T11:33:29.732Z,66.50
2019-06-15T11:35:57.577Z,64.70
2019-06-15T11:38:25.308Z,63.60
2019-06-15T11:40:53.230Z,62.80
2019-06-15T11:43:24.111Z,60.70
2019-06-15T11:45:51.973Z,60.50
2019-06-15T11:48:19.731Z,59.10
2019-06-15T11:50:47.455Z,57.30
2019-06-15T11:53:15.303Z,53.70
2019-06-15T11:55:43.018Z,55.30
2019-06-15T11:58:10.882Z,54.20
2019-06-15T12:00:40.330Z,47.80
2019-06-15T12:03:08.310Z,50.40
2019-06-15T12:05:36.141Z,52.90
2019-06-15T12:08:04.211Z,51.50
2019-06-15T12:10:31.931Z,47.30
2019-06-15T12:12:59.671Z,44.60
2019-06-15T12:15:27.496Z,44.40
2019-06-15T12:17:55.245Z,42.10
2019-06-15T12:20:23.082Z,42.20
2019-06-15T12:22:50.957Z,41.40
2019-06-15T12:25:18.701Z,41.10
2019-06-15T12:27:46.525Z,39.10
2019-06-15T12:30:22.426Z,37.00
2019-06-15T12:32:54.354Z,32.50
2019-06-15T12:35:22.143Z,36.20
2019-06-15T12:37:49.973Z,32.60
2019-06-15T12:40:17.757Z,37.00
2019-06-15T12:42:45.488Z,38.60
2019-06-15T12:45:13.555Z,37.20
2019-06-15T12:47:41.272Z,36.60
2019-06-15T12:50:09.126Z,35.40
2019-06-15T12:52:36.869Z,36.40
2019-06-15T12:55:05.393Z,37.30
2019-06-15T12:57:33.116Z,43.10
2019-06-15T13:00:00.824Z,46.40
2019-06-15T13:02:28.736Z,48.70
2019-06-15T13:04:56.498Z,53.90
2019-06-15T13:07:24.445Z,56.60
2019-06-15T13:09:52.138Z,58.50
2019-06-15T13:12:20.135Z,61.20
2019-06-15T13:14:47.833Z,61.10
2019-06-15T13:17:15.719Z,64.50
2019-06-15T13:19:43.431Z,64.50
2019-06-15T13:22:11.162Z,63.00
2019-06-15T13:24:39.169Z,62.40
2019-06-15T13:27:06.883Z,63.70
2019-06-15T13:29:34.610Z,62.20
2019-06-15T13:32:02.762Z,58.40
2019-06-15T13:34:30.561Z,61.60
2019-06-15T13:36:58.267Z,60.40
2019-06-15T13:39:26.309Z,61.00
2019-06-15T13:41:54.032Z,59.50
2019-06-15T13:44:21.851Z,57.10
2019-06-15T13:46:49.690Z,53.80
2019-06-15T13:49:17.588Z,56.20
2019-06-15T13:51:45.303Z,56.20
2019-06-15T13:54:13.002Z,54.20
2019-06-15T13:56:41.001Z,53.90
2019-06-15T13:59:08.700Z,53.10
2019-06-15T14:01:36.424Z,45.80
2019-06-15T14:04:04.328Z,47.00
2019-06-15T14:06:32.062Z,50.00
2019-06-15T14:09:00.035Z,51.40
2019-06-15T14:11:27.971Z,51.10
2019-06-15T14:13:55.975Z,50.10
2019-06-15T14:16:23.746Z,44.50
2019-06-15T14:18:53.768Z,40.00
2019-06-15T14:21:21.671Z,40.80
2019-06-15T14:23:49.465Z,40.00
2019-06-15T14:26:17.183Z,40.60
2019-06-15T14:28:45.181Z,41.80
2019-06-15T14:31:12.925Z,41.10
2019-06-15T14:33:40.681Z,44.80
2019-06-15T14:36:08.731Z,43.80
2019-06-15T14:38:36.535Z,36.40
2019-06-15T14:41:04.333Z,47.40
2019-06-15T14:43:33.084Z,48.30
2019-06-15T14:46:00.923Z,41.90
2019-06-15T14:48:28.794Z,34.40
2019-06-15T14:50:56.568Z,37.60
2019-06-15T14:53:24.331Z,37.80
2019-06-15T14:55:52.283Z,36.90
2019-06-15T14:58:20.056Z,35.50
2019-06-15T15:00:47.794Z,29.50
2019-06-15T15:03:17.172Z,31.90
2019-06-15T15:05:45.124Z,35.30
2019-06-15T15:08:12.905Z,31.90
2019-06-15T15:10:40.822Z,29.80
2019-06-15T15:13:08.548Z,26.50
2019-06-15T15:15:36.486Z,23.80
2019-06-15T15:18:06.842Z,23.80
2019-06-15T15:20:34.428Z,24.00
2019-06-15T15:23:02.174Z,25.60
2019-06-15T15:25:31.067Z,25.00
2019-06-15T15:27:59.304Z,22.60
2019-06-15T15:30:39.952Z,23.20
2019-06-15T15:33:10.548Z,23.00
2019-06-15T15:35:38.300Z,23.00
2019-06-15T15:38:06.254Z,20.60
2019-06-15T15:40:36.582Z,22.20
2019-06-15T15:43:06.688Z,21.50
2019-06-15T15:45:33.833Z,18.00
2019-06-15T15:48:01.888Z,20.40
2019-06-15T15:50:29.640Z,19.50
2019-06-15T15:52:57.669Z,18.90
2019-06-15T15:55:26.492Z,21.70
2019-06-15T15:57:56.258Z,20.90
2019-06-15T16:00:31.022Z,20.90
2019-06-15T16:02:58.784Z,22.70
2019-06-15T16:05:26.706Z,21.30
2019-06-15T16:07:56.900Z,18.00
2019-06-15T16:10:26.514Z,21.20
2019-06-15T16:12:54.037Z,20.10
2019-06-15T16:15:23.688Z,21.80
2019-06-15T16:17:51.497Z,22.00
2019-06-15T16:20:19.199Z,23.40
2019-06-15T16:22:47.194Z,22.10
2019-06-15T16:25:16.250Z,20.10
2019-06-15T16:27:46.278Z,19.00
2019-06-15T16:30:46.130Z,20.20
2019-06-15T16:33:03.143Z,21.00
2019-06-15T16:35:27.014Z,20.60
2019-06-15T16:37:55.872Z,21.30
2019-06-15T16:40:46.780Z,21.90
2019-06-15T16:43:13.812Z,22.20
2019-06-15T16:45:41.608Z,22.90
2019-06-15T16:48:09.459Z,23.80
2019-06-15T16:50:39.117Z,24.80
2019-06-15T16:53:06.839Z,25.80
2019-06-15T16:55:36.766Z,25.90
2019-06-15T16:58:07.117Z,24.90
2019-06-15T17:00:36.419Z,26.40
2019-06-15T17:03:19.874Z,26.20
2019-06-15T17:05:36.207Z,25.40
2019-06-15T17:08:06.693Z,24.30
2019-06-15T17:10:38.744Z,22.70
2019-06-15T17:13:06.977Z,19.40
2019-06-15T17:15:36.990Z,20.80
2019-06-15T17:18:05.853Z,19.70
2019-06-15T17:20:46.598Z,17.50
2019-06-15T17:23:16.407Z,18.80
2019-06-15T17:25:50.014Z,19.70
2019-06-15T17:28:17.735Z,18.60
2019-06-15T17:30:45.563Z,19.80
2019-06-15T17:33:16.276Z,17.60
2019-06-15T17:35:56.097Z,19.80
2019-06-15T17:38:12.886Z,20.10
2019-06-15T17:40:40.731Z,19.00
2019-06-15T17:43:08.767Z,18.70
2019-06-15T17:45:37.563Z,19.30
2019-06-15T17:48:06.442Z,19.70
2019-06-15T17:50:37.686Z,18.50
2019-06-15T17:53:07.006Z,18.50
2019-06-15T17:55:36.741Z,17.70
2019-06-15T17:58:06.477Z,15.90
2019-06-15T18:00:41.704Z,16.30
2019-06-15T18:03:09.517Z,16.90
2019-06-15T18:05:37.400Z,17.50
2019-06-15T18:08:06.712Z,17.60
2019-06-15T18:10:36.264Z,17.90
2019-06-15T18:13:06.944Z,17.90
2019-06-15T18:15:36.250Z,18.00
2019-06-15T18:18:06.924Z,18.10
2019-06-15T18:20:36.292Z,17.20
2019-06-15T18:23:06.077Z,16.80
2019-06-15T18:25:33.581Z,16.00
2019-06-15T18:28:01.342Z,16.70
2019-06-15T18:30:29.236Z,17.30
2019-06-15T18:32:57.017Z,16.90
2019-06-15T18:35:26.910Z,19.10
2019-06-15T18:37:55.945Z,18.90
2019-06-15T18:40:26.882Z,21.60
2019-06-15T18:42:55.951Z,21.20
2019-06-15T18:45:23.996Z,20.60
2019-06-15T18:47:51.860Z,20.90
2019-06-15T18:50:37.480Z,22.50
2019-06-15T18:53:07.200Z,22.50
2019-06-15T18:55:36.514Z,23.20
2019-06-15T18:58:05.761Z,24.80
2019-06-15T19:00:37.055Z,27.50
2019-06-15T19:03:06.842Z,29.50
2019-06-15T19:05:37.331Z,30.80
2019-06-15T19:08:07.019Z,31.40
2019-06-15T19:10:35.368Z,31.50
2019-06-15T19:13:04.176Z,31.30
2019-06-15T19:15:32.453Z,33.60
2019-06-15T19:18:00.216Z,34.80
2019-06-15T19:20:28.058Z,35.60
2019-06-15T19:22:56.149Z,36.10
2019-06-15T19:25:24.120Z,37.80
2019-06-15T19:27:51.888Z,37.40
2019-06-15T19:30:19.816Z,40.90
2019-06-15T19:32:47.663Z,41.30
2019-06-15T19:35:15.391Z,42.30
2019-06-15T19:37:43.130Z,43.40
2019-06-15T19:40:11.951Z,43.90
2019-06-15T19:42:39.791Z,43.70
2019-06-15T19:45:10.480Z,44.80
2019-06-15T19:47:38.109Z,44.70
2019-06-15T19:50:09.737Z,45.60
2019-06-15T19:52:36.638Z,44.60
2019-06-15T19:55:06.732Z,44.90
2019-06-15T19:57:36.156Z,47.30
2019-06-15T20:00:06.512Z,47.50
2019-06-15T20:02:36.391Z,46.90
2019-06-15T20:05:05.501Z,47.60
2019-06-15T20:07:33.716Z,47.50
2019-06-15T20:10:01.843Z,48.50
2019-06-15T20:12:29.711Z,48.90
2019-06-15T20:14:57.650Z,49.40
2019-06-15T20:17:25.564Z,50.30
2019-06-15T20:19:55.825Z,49.70
2019-06-15T20:22:23.066Z,50.00
2019-06-15T20:24:50.798Z,50.40
2019-06-15T20:27:18.520Z,51.60
2019-06-15T20:29:47.534Z,52.60
2019-06-15T20:32:17.355Z,52.70
2019-06-15T20:34:46.272Z,54.10
2019-06-15T20:37:16.693Z,53.90
2019-06-15T20:39:46.684Z,54.70
2019-06-15T20:42:16.268Z,55.30
2019-06-15T20:44:46.046Z,56.10
2019-06-15T20:47:13.273Z,57.50
2019-06-15T20:49:41.109Z,58.00
2019-06-15T20:52:08.873Z,59.20
2019-06-15T20:54:36.664Z,59.80
2019-06-15T20:57:06.442Z,60.10
2019-06-15T20:59:36.787Z,61.80
2019-06-15T21:02:06.562Z,61.80
2019-06-15T21:04:36.166Z,62.60
2019-06-15T21:07:06.403Z,63.00
2019-06-15T21:09:36.181Z,63.00
2019-06-15T21:12:03.553Z,63.20
2019-06-15T21:14:31.411Z,63.60
2019-06-15T21:16:59.287Z,63.60
2019-06-15T21:19:27.015Z,63.60
2019-06-15T21:21:56.719Z,64.00
2019-06-15T21:24:26.325Z,64.50
2019-06-15T21:26:56.270Z,64.60
2019-06-15T21:29:26.336Z,64.30
2019-06-15T21:31:53.670Z,63.70
2019-06-15T21:34:26.406Z,64.20
2019-06-15T21:36:53.489Z,63.80
2019-06-15T21:39:21.313Z,63.80
2019-06-15T21:41:49.112Z,63.00
2019-06-15T21:44:17.118Z,64.00
2019-06-15T21:46:46.813Z,63.20
2019-06-15T21:49:15.897Z,64.20
2019-06-15T21:51:43.739Z,63.90
2019-06-15T21:54:11.537Z,64.10
2019-06-15T21:56:39.240Z,64.00
2019-06-15T21:59:07.548Z,63.40
2019-06-15T22:01:38.421Z,63.50
2019-06-15T22:04:06.779Z,63.20
2019-06-15T22:06:38.031Z,64.00
2019-06-15T22:09:11.860Z,63.10
2019-06-15T22:11:41.355Z,63.30
2019-06-15T22:14:09.085Z,63.10
2019-06-15T22:16:36.805Z,63.50
2019-06-15T22:19:06.148Z,64.50
2019-06-15T22:21:36.063Z,66.00
2019-06-15T22:24:06.642Z,66.40
2019-06-15T22:26:33.819Z,65.60
2019-06-15T22:29:01.557Z,65.40
2019-06-15T22:31:29.422Z,65.70
2019-06-15T22:33:57.920Z,65.50
2019-06-15T22:36:28.491Z,65.30
2019-06-15T22:38:56.987Z,65.80
2019-06-15T22:41:24.934Z,65.80
2019-06-15T22:43:52.753Z,65.20
2019-06-15T22:46:20.624Z,64.90
2019-06-15T22:48:48.959Z,63.60
2019-06-15T22:51:17.062Z,64.00
2019-06-15T22:53:47.219Z,64.80
2019-06-15T22:56:16.897Z,64.70
2019-06-15T22:58:46.122Z,64.70
2019-06-15T23:01:16.610Z,64.40
2019-06-15T23:03:46.329Z,64.80
2019-06-15T23:06:15.967Z,64.80
2019-06-15T23:08:43.112Z,64.60
2019-06-15T23:11:10.777Z,65.20
2019-06-15T23:13:38.801Z,65.20
2019-06-15T23:16:06.522Z,64.80
2019-06-15T23:18:34.342Z,65.70
2019-06-15T23:21:02.244Z,64.30
2019-06-15T23:23:29.971Z,63.90
2019-06-15T23:25:57.773Z,63.60
2019-06-15T23:28:27.117Z,63.90
2019-06-15T23:30:56.178Z,64.40
2019-06-15T23:33:26.411Z,64.10
2019-06-15T23:35:59.861Z,63.60
2019-06-15T23:38:27.567Z,63.60
2019-06-15T23:40:56.123Z,63.50
2019-06-15T23:43:26.743Z,63.30
2019-06-15T23:45:55.992Z,63.10
2019-06-15T23:48:23.379Z,62.80
2019-06-15T23:50:51.734Z,62.80
2019-06-15T23:53:19.413Z,61.60
2019-06-15T23:55:47.491Z,62.50
2019-06-15T23:58:17.594Z,63.00
